ZSJPL FASH-FASH
Flight info
| Callsign | ZSJPL |
|---|---|
| Flight time | 0h 28m |
| Altitude | 2500 |
| Route | LOCAL |
| Aircraft | RV10/L-VGD/A |
Departure
| Time | 2026-05-05 16:00 |
|---|---|
| Airport | Stellenbosch Airport (FASH) |
Arrival
| Time | 2026-05-05 16:28 |
|---|---|
| Airport | Stellenbosch Airport (FASH) |
| Time | Latitude | Longitude | Altitude | Speed | Heading |
|---|---|---|---|---|---|
| 2026-05-05 15:49 | -33.98014 | 18.82067 | 306 ft | 0 kts | 250° |
| 2026-05-05 15:55 | -33.98014 | 18.82066 | 306 ft | 0 kts | 243° |
| 2026-05-05 15:55 | -33.98015 | 18.82065 | 306 ft | 0 kts | 214° |
| 2026-05-05 15:56 | -33.98017 | 18.82063 | 306 ft | 1 kts | 223° |
| 2026-05-05 15:56 | -33.98014 | 18.82048 | 305 ft | 3 kts | 341° |
| 2026-05-05 15:56 | -33.97992 | 18.82040 | 304 ft | 6 kts | 340° |
| 2026-05-05 15:57 | -33.97973 | 18.82065 | 304 ft | 8 kts | 77° |
| 2026-05-05 15:57 | -33.97944 | 18.82096 | 304 ft | 5 kts | 328° |
| 2026-05-05 15:57 | -33.97902 | 18.82080 | 302 ft | 9 kts | 342° |
| 2026-05-05 15:57 | -33.97829 | 18.82052 | 299 ft | 7 kts | 349° |
| 2026-05-05 15:58 | -33.97783 | 18.82035 | 297 ft | 5 kts | 336° |
| 2026-05-05 15:58 | -33.97749 | 18.82034 | 296 ft | 0 kts | 85° |
| 2026-05-05 15:58 | -33.97748 | 18.82041 | 297 ft | 1 kts | 95° |
| 2026-05-05 15:59 | -33.97748 | 18.82042 | 297 ft | 0 kts | 108° |
| 2026-05-05 15:59 | -33.97749 | 18.82053 | 297 ft | 3 kts | 65° |
| 2026-05-05 15:59 | -33.97749 | 18.82088 | 298 ft | 3 kts | 156° |
| 2026-05-05 15:59 | -33.97985 | 18.82182 | 350 ft | 73 kts | 162° |
| 2026-05-05 16:00 | -33.98351 | 18.82343 | 551 ft | 95 kts | 154° |
| 2026-05-05 16:00 | -33.99240 | 18.82909 | 1032 ft | 121 kts | 146° |
| 2026-05-05 16:00 | -33.99633 | 18.83358 | 1386 ft | 114 kts | 114° |
| 2026-05-05 16:00 | -33.99616 | 18.84307 | 1846 ft | 122 kts | 60° |
| 2026-05-05 16:01 | -33.98886 | 18.85018 | 2001 ft | 148 kts | 28° |
| 2026-05-05 16:01 | -33.97709 | 18.85684 | 2231 ft | 147 kts | 18° |
| 2026-05-05 16:01 | -33.96737 | 18.85874 | 2672 ft | 148 kts | 4° |
| 2026-05-05 16:01 | -33.95733 | 18.85966 | 2411 ft | 118 kts | 2° |
| 2026-05-05 16:02 | -33.94918 | 18.85941 | 2410 ft | 120 kts | 350° |
| 2026-05-05 16:02 | -33.94367 | 18.85859 | 2532 ft | 123 kts | 347° |
| 2026-05-05 16:02 | -33.93170 | 18.85593 | 2860 ft | 135 kts | 349° |
| 2026-05-05 16:02 | -33.92201 | 18.85396 | 2758 ft | 130 kts | 348° |
| 2026-05-05 16:03 | -33.91672 | 18.85284 | 2577 ft | 111 kts | 351° |
| 2026-05-05 16:03 | -33.90757 | 18.85003 | 2213 ft | 103 kts | 332° |
| 2026-05-05 16:03 | -33.90013 | 18.84532 | 2267 ft | 131 kts | 329° |
| 2026-05-05 16:03 | -33.89186 | 18.83919 | 2428 ft | 140 kts | 325° |
| 2026-05-05 16:04 | -33.88402 | 18.83221 | 2597 ft | 145 kts | 322° |
| 2026-05-05 16:04 | -33.87575 | 18.82459 | 2496 ft | 147 kts | 323° |
| 2026-05-05 16:04 | -33.86783 | 18.81692 | 2278 ft | 143 kts | 317° |
| 2026-05-05 16:04 | -33.86165 | 18.80774 | 2118 ft | 136 kts | 303° |
| 2026-05-05 16:05 | -33.85644 | 18.79756 | 2122 ft | 147 kts | 298° |
| 2026-05-05 16:05 | -33.85283 | 18.78689 | 2295 ft | 143 kts | 279° |
| 2026-05-05 16:05 | -33.84983 | 18.77505 | 2317 ft | 149 kts | 289° |
| 2026-05-05 16:05 | -33.84552 | 18.76339 | 2384 ft | 149 kts | 301° |
| 2026-05-05 16:06 | -33.83916 | 18.75367 | 2332 ft | 150 kts | 309° |
| 2026-05-05 16:06 | -33.83145 | 18.74551 | 2267 ft | 144 kts | 330° |
| 2026-05-05 16:06 | -33.82212 | 18.74163 | 2280 ft | 143 kts | 342° |
| 2026-05-05 16:06 | -33.81239 | 18.73765 | 2182 ft | 148 kts | 339° |
| 2026-05-05 16:07 | -33.80299 | 18.73328 | 2142 ft | 149 kts | 337° |
| 2026-05-05 16:07 | -33.79269 | 18.72827 | 1898 ft | 154 kts | 340° |
| 2026-05-05 16:07 | -33.78590 | 18.72534 | 1721 ft | 161 kts | 332° |
| 2026-05-05 16:07 | -33.77384 | 18.71655 | 1872 ft | 141 kts | 313° |
| 2026-05-05 16:08 | -33.76954 | 18.71082 | 1908 ft | 139 kts | 312° |
| 2026-05-05 16:08 | -33.76115 | 18.69846 | 1816 ft | 146 kts | 301° |
| 2026-05-05 16:08 | -33.75666 | 18.68768 | 1889 ft | 139 kts | 292° |
| 2026-05-05 16:08 | -33.75335 | 18.67680 | 1850 ft | 141 kts | 284° |
| 2026-05-05 16:09 | -33.75024 | 18.66540 | 1811 ft | 143 kts | 284° |
| 2026-05-05 16:09 | -33.74875 | 18.65768 | 1769 ft | 144 kts | 273° |
| 2026-05-05 16:09 | -33.75014 | 18.64222 | 1823 ft | 137 kts | 257° |
| 2026-05-05 16:09 | -33.75247 | 18.63112 | 1856 ft | 135 kts | 250° |
| 2026-05-05 16:10 | -33.75570 | 18.62048 | 1866 ft | 135 kts | 248° |
| 2026-05-05 16:10 | -33.75930 | 18.60993 | 1844 ft | 139 kts | 244° |
| 2026-05-05 16:10 | -33.76183 | 18.60280 | 1885 ft | 135 kts | 248° |
| 2026-05-05 16:10 | -33.76518 | 18.58820 | 1836 ft | 140 kts | 248° |
| 2026-05-05 16:11 | -33.76791 | 18.57703 | 1819 ft | 139 kts | 258° |
| 2026-05-05 16:11 | -33.77137 | 18.54197 | 1747 ft | 138 kts | 258° |
| 2026-05-05 16:12 | -33.77408 | 18.53037 | 1592 ft | 146 kts | 252° |
| 2026-05-05 16:12 | -33.78207 | 18.50934 | 1697 ft | 134 kts | 230° |
| 2026-05-05 16:13 | -33.79742 | 18.48448 | 1476 ft | 144 kts | 244° |
| 2026-05-05 16:13 | -33.80494 | 18.47199 | 1472 ft | 140 kts | 219° |
| 2026-05-05 16:13 | -33.81038 | 18.46794 | 1496 ft | 135 kts | 203° |
| 2026-05-05 16:14 | -33.83176 | 18.46643 | 1534 ft | 133 kts | 183° |
| 2026-05-05 16:14 | -33.84566 | 18.47499 | 1130 ft | 157 kts | 75° |
| 2026-05-05 16:15 | -33.82914 | 18.48962 | 1139 ft | 145 kts | 25° |
| 2026-05-05 16:15 | -33.81115 | 18.49870 | 1282 ft | 134 kts | 17° |
| 2026-05-05 16:16 | -33.79418 | 18.50972 | 1198 ft | 141 kts | 46° |
| 2026-05-05 16:16 | -33.78279 | 18.52444 | 1080 ft | 148 kts | 47° |
| 2026-05-05 16:17 | -33.76981 | 18.54348 | 1057 ft | 143 kts | 58° |
| 2026-05-05 16:17 | -33.76443 | 18.55819 | 1025 ft | 141 kts | 70° |
| 2026-05-05 16:18 | -33.76006 | 18.57692 | 1092 ft | 132 kts | 79° |
| 2026-05-05 16:18 | -33.75925 | 18.58776 | 1126 ft | 131 kts | 92° |
| 2026-05-05 16:18 | -33.76271 | 18.61286 | 1275 ft | 121 kts | 107° |
| 2026-05-05 16:19 | -33.76531 | 18.62226 | 1403 ft | 115 kts | 109° |
| 2026-05-05 16:19 | -33.76828 | 18.63143 | 1387 ft | 122 kts | 112° |
| 2026-05-05 16:19 | -33.77518 | 18.64710 | 1408 ft | 125 kts | 124° |
| 2026-05-05 16:20 | -33.78632 | 18.66360 | 1502 ft | 121 kts | 137° |
| 2026-05-05 16:20 | -33.79945 | 18.68173 | 1554 ft | 125 kts | 115° |
| 2026-05-05 16:21 | -33.80255 | 18.70266 | 1555 ft | 130 kts | 91° |
| 2026-05-05 16:22 | -33.80564 | 18.73459 | 1644 ft | 125 kts | 115° |
| 2026-05-05 16:22 | -33.81844 | 18.74755 | 1584 ft | 132 kts | 166° |
| 2026-05-05 16:23 | -33.83678 | 18.75290 | 1534 ft | 133 kts | 169° |
| 2026-05-05 16:23 | -33.84608 | 18.75452 | 1503 ft | 136 kts | 170° |
| 2026-05-05 16:23 | -33.86148 | 18.75695 | 1483 ft | 137 kts | 175° |
| 2026-05-05 16:24 | -33.87377 | 18.75557 | 1552 ft | 128 kts | 178° |
| 2026-05-05 16:24 | -33.88128 | 18.76108 | 1606 ft | 122 kts | 134° |
| 2026-05-05 16:24 | -33.89022 | 18.77469 | 1534 ft | 133 kts | 122° |
| 2026-05-05 16:25 | -33.89761 | 18.78614 | 1557 ft | 128 kts | 146° |
| 2026-05-05 16:25 | -33.91536 | 18.79322 | 1439 ft | 136 kts | 166° |
| 2026-05-05 16:25 | -33.92124 | 18.79509 | 1490 ft | 131 kts | 162° |
| 2026-05-05 16:26 | -33.93928 | 18.80526 | 1143 ft | 111 kts | 155° |
| 2026-05-05 16:26 | -33.95347 | 18.81193 | 872 ft | 109 kts | 160° |
| 2026-05-05 16:27 | -33.96009 | 18.81439 | 711 ft | 89 kts | 160° |
| 2026-05-05 16:27 | -33.96516 | 18.81650 | 595 ft | 64 kts | 165° |
| 2026-05-05 16:27 | -33.96792 | 18.81734 | 524 ft | 59 kts | 164° |
| 2026-05-05 16:27 | -33.97328 | 18.81933 | 398 ft | 60 kts | 162° |
| 2026-05-05 16:28 | -33.97591 | 18.82034 | 333 ft | 58 kts | 163° |
| 2026-05-05 16:28 | -33.98022 | 18.82195 | 309 ft | 27 kts | 163° |
| 2026-05-05 16:28 | -33.98134 | 18.82236 | 315 ft | 13 kts | 160° |
| 2026-05-05 16:28 | -33.98219 | 18.82272 | 319 ft | 12 kts | 162° |
| 2026-05-05 16:29 | -33.98276 | 18.82294 | 322 ft | 12 kts | 162° |
| 2026-05-05 16:29 | -33.98384 | 18.82336 | 327 ft | 11 kts | 171° |
| 2026-05-05 16:29 | -33.98414 | 18.82296 | 326 ft | 7 kts | 273° |
| 2026-05-05 16:29 | -33.98391 | 18.82270 | 324 ft | 9 kts | 336° |
| 2026-05-05 16:30 | -33.98289 | 18.82231 | 319 ft | 10 kts | 341° |
| 2026-05-05 16:30 | -33.98212 | 18.82201 | 316 ft | 13 kts | 344° |
| 2026-05-05 16:30 | -33.98154 | 18.82153 | 312 ft | 4 kts | 236° |
| 2026-05-05 16:30 | -33.98156 | 18.82103 | 310 ft | 6 kts | 342° |
| 2026-05-05 16:31 | -33.98080 | 18.82075 | 308 ft | 16 kts | 341° |
| 2026-05-05 16:31 | -33.97975 | 18.82031 | 303 ft | 14 kts | 352° |
| 2026-05-05 16:31 | -33.97885 | 18.81995 | 299 ft | 13 kts | 333° |
| 2026-05-05 16:31 | -33.97867 | 18.81965 | 298 ft | 3 kts | 220° |
| 2026-05-05 16:32 | -33.97873 | 18.81958 | 298 ft | 0 kts | 250° |
| 2026-05-05 16:32 | -33.97875 | 18.81948 | 298 ft | 1 kts | 285° |
| 2026-05-05 16:32 | -33.97868 | 18.81955 | 297 ft | 0 kts | 66° |
| 2026-05-05 16:32 | -33.97865 | 18.81961 | 297 ft | 0 kts | 58° |